Decoded Metar for KVBG (LOMPOC in CA, USA) (IATA:VBG) | Meteo·Mobile Aviation Weather
aviador You're here:

KVBG Decoded Metar

LOMPOC in CA, USA
Report Time2019-10-21 07:58:00
UTC Time2019-10-21 08:13:32
Flight Rules vfr VFR
Wind240° at 05 kt
W.Decomp.*RWY 30: 1.4 kt HW 4.8 kt LCW
Visibility9999 m
Phenomena:N/A
Clouds:N/A
Expected CloudBase > 3,600 ft AGL from Temp-Dew spread
CeilingNone
Temp15°C (ISA +1)
Dew Point06°C (55% RH)
AAT12.3°C
QNH1017 hPa
Density Alt446 ft
Elevation367 ft
Report Wrong Elevation
Raw Report
KVBG 210758Z AUTO 24005KT 10SM CLR 15/06 A3003 RMK AO2 SLP171
T01530059 402230110 $=

Extra information for KVBG:More info

Metar Taf Metar & Taf Last 4 Metars F.Rules Stats Wind Profile Meteogram Temp Stats Airport Information Weather charts Add Link Nearby VenuesMetar ALERT Operation Metar Decoded Social comments

AIRNAV info for KVBG